sensor_id;sensor_type;location;lat;lon;timestamp;P1;durP1;ratioP1;P2;durP2;ratioP2
65863;SDS011;52639;51.180;20.460;2022-07-18T00:00:55;8.18;;;3.00;;
65863;SDS011;52639;51.180;20.460;2022-07-18T00:04:58;6.72;;;2.78;;
65863;SDS011;52639;51.180;20.460;2022-07-18T00:09:03;6.68;;;2.97;;
65863;SDS011;52639;51.180;20.460;2022-07-18T00:13:07;6.47;;;2.95;;
65863;SDS011;52639;51.180;20.460;2022-07-18T00:17:12;5.95;;;2.70;;
65863;SDS011;52639;51.180;20.460;2022-07-18T00:21:16;4.30;;;2.85;;
65863;SDS011;52639;51.180;20.460;2022-07-18T00:25:19;5.10;;;2.88;;
65863;SDS011;52639;51.180;20.460;2022-07-18T00:29:24;6.13;;;2.88;;
65863;SDS011;52639;51.180;20.460;2022-07-18T00:33:30;5.28;;;2.70;;
65863;SDS011;52639;51.180;20.460;2022-07-18T00:37:34;4.53;;;2.58;;
65863;SDS011;52639;51.180;20.460;2022-07-18T00:41:37;5.07;;;2.80;;
65863;SDS011;52639;51.180;20.460;2022-07-18T00:45:43;6.22;;;3.15;;
65863;SDS011;52639;51.180;20.460;2022-07-18T00:49:48;7.80;;;3.28;;
65863;SDS011;52639;51.180;20.460;2022-07-18T00:53:52;5.78;;;3.03;;
65863;SDS011;52639;51.180;20.460;2022-07-18T00:57:56;6.10;;;2.90;;
65863;SDS011;52639;51.180;20.460;2022-07-18T01:02:00;5.03;;;2.85;;
65863;SDS011;52639;51.180;20.460;2022-07-18T01:06:05;5.40;;;3.20;;
65863;SDS011;52639;51.180;20.460;2022-07-18T01:10:09;7.32;;;3.28;;
65863;SDS011;52639;51.180;20.460;2022-07-18T01:14:13;5.13;;;3.13;;
65863;SDS011;52639;51.180;20.460;2022-07-18T01:18:18;7.68;;;2.88;;
65863;SDS011;52639;51.180;20.460;2022-07-18T01:22:23;4.55;;;2.78;;
65863;SDS011;52639;51.180;20.460;2022-07-18T01:26:27;4.82;;;2.90;;
65863;SDS011;52639;51.180;20.460;2022-07-18T01:30:30;4.65;;;2.80;;
65863;SDS011;52639;51.180;20.460;2022-07-18T01:34:34;6.82;;;2.85;;
65863;SDS011;52639;51.180;20.460;2022-07-18T01:38:39;6.57;;;3.20;;
65863;SDS011;52639;51.180;20.460;2022-07-18T01:42:44;6.93;;;3.03;;
65863;SDS011;52639;51.180;20.460;2022-07-18T01:46:47;5.53;;;3.13;;
65863;SDS011;52639;51.180;20.460;2022-07-18T01:50:51;4.85;;;3.20;;
65863;SDS011;52639;51.180;20.460;2022-07-18T01:54:57;5.47;;;3.30;;
65863;SDS011;52639;51.180;20.460;2022-07-18T01:59:01;8.68;;;3.15;;
65863;SDS011;52639;51.180;20.460;2022-07-18T02:03:05;6.32;;;3.30;;
65863;SDS011;52639;51.180;20.460;2022-07-18T02:07:08;9.82;;;3.05;;
65863;SDS011;52639;51.180;20.460;2022-07-18T02:11:13;4.32;;;3.00;;
65863;SDS011;52639;51.180;20.460;2022-07-18T02:15:18;5.65;;;3.05;;
65863;SDS011;52639;51.180;20.460;2022-07-18T02:19:21;4.95;;;3.10;;
65863;SDS011;52639;51.180;20.460;2022-07-18T02:23:25;5.20;;;3.00;;
65863;SDS011;52639;51.180;20.460;2022-07-18T02:27:30;8.75;;;3.38;;
65863;SDS011;52639;51.180;20.460;2022-07-18T02:31:35;4.60;;;2.90;;
65863;SDS011;52639;51.180;20.460;2022-07-18T02:35:39;4.50;;;3.00;;
65863;SDS011;52639;51.180;20.460;2022-07-18T02:39:44;7.20;;;3.38;;
65863;SDS011;52639;51.180;20.460;2022-07-18T02:43:49;6.03;;;3.35;;
65863;SDS011;52639;51.180;20.460;2022-07-18T02:47:53;8.02;;;4.00;;
65863;SDS011;52639;51.180;20.460;2022-07-18T02:51:58;6.00;;;3.28;;
65863;SDS011;52639;51.180;20.460;2022-07-18T02:56:04;6.72;;;3.03;;
65863;SDS011;52639;51.180;20.460;2022-07-18T03:00:10;6.65;;;3.42;;
65863;SDS011;52639;51.180;20.460;2022-07-18T03:04:16;7.43;;;3.08;;
65863;SDS011;52639;51.180;20.460;2022-07-18T03:08:20;6.80;;;3.28;;
65863;SDS011;52639;51.180;20.460;2022-07-18T03:12:24;5.88;;;3.63;;
65863;SDS011;52639;51.180;20.460;2022-07-18T03:16:29;6.88;;;3.00;;
65863;SDS011;52639;51.180;20.460;2022-07-18T03:20:33;4.20;;;3.03;;
65863;SDS011;52639;51.180;20.460;2022-07-18T03:24:37;6.25;;;3.10;;
65863;SDS011;52639;51.180;20.460;2022-07-18T03:28:40;4.38;;;3.00;;
65863;SDS011;52639;51.180;20.460;2022-07-18T03:32:46;6.72;;;3.47;;
65863;SDS011;52639;51.180;20.460;2022-07-18T03:36:49;9.30;;;3.42;;
65863;SDS011;52639;51.180;20.460;2022-07-18T03:40:53;5.57;;;3.30;;
65863;SDS011;52639;51.180;20.460;2022-07-18T03:44:57;6.55;;;3.13;;
65863;SDS011;52639;51.180;20.460;2022-07-18T03:49:02;7.45;;;3.40;;
65863;SDS011;52639;51.180;20.460;2022-07-18T03:53:06;6.03;;;3.65;;
65863;SDS011;52639;51.180;20.460;2022-07-18T03:57:09;12.00;;;4.18;;
65863;SDS011;52639;51.180;20.460;2022-07-18T04:01:13;7.20;;;3.80;;
65863;SDS011;52639;51.180;20.460;2022-07-18T04:05:18;7.85;;;3.83;;
65863;SDS011;52639;51.180;20.460;2022-07-18T04:09:22;5.60;;;3.60;;
65863;SDS011;52639;51.180;20.460;2022-07-18T04:13:25;5.20;;;3.42;;
65863;SDS011;52639;51.180;20.460;2022-07-18T04:17:29;7.65;;;3.78;;
65863;SDS011;52639;51.180;20.460;2022-07-18T04:21:34;7.32;;;3.78;;
65863;SDS011;52639;51.180;20.460;2022-07-18T04:25:39;6.65;;;3.45;;
65863;SDS011;52639;51.180;20.460;2022-07-18T04:29:43;6.82;;;3.58;;
65863;SDS011;52639;51.180;20.460;2022-07-18T04:33:47;9.77;;;4.43;;
65863;SDS011;52639;51.180;20.460;2022-07-18T04:37:52;9.90;;;5.97;;
65863;SDS011;52639;51.180;20.460;2022-07-18T04:41:56;8.13;;;3.83;;
65863;SDS011;52639;51.180;20.460;2022-07-18T04:46:00;7.78;;;3.70;;
65863;SDS011;52639;51.180;20.460;2022-07-18T04:50:04;5.10;;;3.45;;
65863;SDS011;52639;51.180;20.460;2022-07-18T04:54:10;5.53;;;3.47;;
65863;SDS011;52639;51.180;20.460;2022-07-18T04:58:14;5.60;;;3.50;;
65863;SDS011;52639;51.180;20.460;2022-07-18T05:02:17;9.60;;;4.20;;
65863;SDS011;52639;51.180;20.460;2022-07-18T05:06:21;9.52;;;4.05;;
65863;SDS011;52639;51.180;20.460;2022-07-18T05:10:27;5.50;;;3.42;;
65863;SDS011;52639;51.180;20.460;2022-07-18T05:14:31;8.13;;;3.22;;
65863;SDS011;52639;51.180;20.460;2022-07-18T05:18:35;6.43;;;3.17;;
65863;SDS011;52639;51.180;20.460;2022-07-18T05:22:40;5.82;;;3.22;;
65863;SDS011;52639;51.180;20.460;2022-07-18T05:26:47;6.15;;;3.25;;
65863;SDS011;52639;51.180;20.460;2022-07-18T05:30:51;6.40;;;3.20;;
65863;SDS011;52639;51.180;20.460;2022-07-18T05:34:55;6.40;;;3.55;;
65863;SDS011;52639;51.180;20.460;2022-07-18T05:38:59;7.30;;;3.78;;
65863;SDS011;52639;51.180;20.460;2022-07-18T05:43:04;6.03;;;3.17;;
65863;SDS011;52639;51.180;20.460;2022-07-18T05:47:08;6.13;;;2.90;;
65863;SDS011;52639;51.180;20.460;2022-07-18T05:51:13;7.50;;;3.47;;
65863;SDS011;52639;51.180;20.460;2022-07-18T05:55:17;5.28;;;3.15;;
65863;SDS011;52639;51.180;20.460;2022-07-18T05:59:23;8.43;;;3.33;;
65863;SDS011;52639;51.180;20.460;2022-07-18T06:03:29;10.18;;;4.90;;
65863;SDS011;52639;51.180;20.460;2022-07-18T06:07:34;6.97;;;3.28;;
65863;SDS011;52639;51.180;20.460;2022-07-18T06:11:39;5.95;;;3.38;;
65863;SDS011;52639;51.180;20.460;2022-07-18T06:15:45;10.80;;;3.38;;
65863;SDS011;52639;51.180;20.460;2022-07-18T06:19:49;11.65;;;4.03;;
65863;SDS011;52639;51.180;20.460;2022-07-18T06:23:54;4.97;;;2.88;;
65863;SDS011;52639;51.180;20.460;2022-07-18T06:27:57;11.60;;;4.88;;
65863;SDS011;52639;51.180;20.460;2022-07-18T06:32:04;9.48;;;4.78;;
65863;SDS011;52639;51.180;20.460;2022-07-18T06:36:14;6.63;;;3.30;;
65863;SDS011;52639;51.180;20.460;2022-07-18T06:40:31;8.52;;;3.80;;
65863;SDS011;52639;51.180;20.460;2022-07-18T06:44:46;12.13;;;4.35;;
65863;SDS011;52639;51.180;20.460;2022-07-18T06:49:01;8.98;;;3.97;;
65863;SDS011;52639;51.180;20.460;2022-07-18T06:53:21;7.63;;;3.55;;
65863;SDS011;52639;51.180;20.460;2022-07-18T06:57:30;6.03;;;3.60;;
65863;SDS011;52639;51.180;20.460;2022-07-18T07:01:37;10.18;;;3.97;;
65863;SDS011;52639;51.180;20.460;2022-07-18T07:05:50;12.30;;;6.22;;
65863;SDS011;52639;51.180;20.460;2022-07-18T07:10:03;9.27;;;3.83;;
65863;SDS011;52639;51.180;20.460;2022-07-18T07:14:15;9.25;;;3.65;;
65863;SDS011;52639;51.180;20.460;2022-07-18T07:18:31;6.32;;;3.90;;
65863;SDS011;52639;51.180;20.460;2022-07-18T07:23:21;7.72;;;3.50;;
65863;SDS011;52639;51.180;20.460;2022-07-18T07:27:32;6.50;;;3.25;;
65863;SDS011;52639;51.180;20.460;2022-07-18T07:31:40;5.22;;;2.88;;
65863;SDS011;52639;51.180;20.460;2022-07-18T07:35:48;6.82;;;3.35;;
65863;SDS011;52639;51.180;20.460;2022-07-18T07:40:00;4.85;;;2.90;;
65863;SDS011;52639;51.180;20.460;2022-07-18T07:44:14;7.28;;;3.00;;
65863;SDS011;52639;51.180;20.460;2022-07-18T07:48:29;5.95;;;2.85;;
65863;SDS011;52639;51.180;20.460;2022-07-18T07:53:09;5.45;;;2.70;;
65863;SDS011;52639;51.180;20.460;2022-07-18T07:57:22;7.00;;;2.70;;
65863;SDS011;52639;51.180;20.460;2022-07-18T08:01:38;5.32;;;2.38;;
65863;SDS011;52639;51.180;20.460;2022-07-18T08:06:08;5.18;;;2.40;;
65863;SDS011;52639;51.180;20.460;2022-07-18T08:10:20;7.43;;;2.50;;
65863;SDS011;52639;51.180;20.460;2022-07-18T08:14:38;4.80;;;2.10;;
65863;SDS011;52639;51.180;20.460;2022-07-18T08:18:53;3.67;;;2.05;;
65863;SDS011;52639;51.180;20.460;2022-07-18T08:23:08;5.45;;;2.20;;
65863;SDS011;52639;51.180;20.460;2022-07-18T08:27:13;6.65;;;2.10;;
65863;SDS011;52639;51.180;20.460;2022-07-18T08:31:18;4.53;;;2.75;;
65863;SDS011;52639;51.180;20.460;2022-07-18T08:35:23;6.20;;;2.72;;
65863;SDS011;52639;51.180;20.460;2022-07-18T08:39:26;4.05;;;2.00;;
65863;SDS011;52639;51.180;20.460;2022-07-18T08:43:29;4.70;;;2.00;;
65863;SDS011;52639;51.180;20.460;2022-07-18T08:47:34;4.25;;;2.20;;
65863;SDS011;52639;51.180;20.460;2022-07-18T08:51:37;5.03;;;2.40;;
65863;SDS011;52639;51.180;20.460;2022-07-18T08:55:42;5.00;;;2.25;;
65863;SDS011;52639;51.180;20.460;2022-07-18T08:59:45;5.70;;;2.35;;
65863;SDS011;52639;51.180;20.460;2022-07-18T09:03:51;3.65;;;2.10;;
65863;SDS011;52639;51.180;20.460;2022-07-18T09:08:12;17.20;;;2.17;;
65863;SDS011;52639;51.180;20.460;2022-07-18T09:16:29;2.90;;;1.92;;
65863;SDS011;52639;51.180;20.460;2022-07-18T09:20:37;5.25;;;2.22;;
65863;SDS011;52639;51.180;20.460;2022-07-18T09:25:03;4.43;;;2.50;;
65863;SDS011;52639;51.180;20.460;2022-07-18T09:29:08;5.28;;;1.90;;
65863;SDS011;52639;51.180;20.460;2022-07-18T09:33:16;4.15;;;2.05;;
65863;SDS011;52639;51.180;20.460;2022-07-18T09:37:23;6.60;;;1.83;;
65863;SDS011;52639;51.180;20.460;2022-07-18T09:41:29;7.03;;;2.28;;
65863;SDS011;52639;51.180;20.460;2022-07-18T09:45:33;6.65;;;1.90;;
65863;SDS011;52639;51.180;20.460;2022-07-18T09:49:38;3.25;;;1.90;;
65863;SDS011;52639;51.180;20.460;2022-07-18T09:53:45;5.22;;;2.28;;
65863;SDS011;52639;51.180;20.460;2022-07-18T09:57:55;3.38;;;1.92;;
65863;SDS011;52639;51.180;20.460;2022-07-18T10:02:00;6.00;;;2.17;;
65863;SDS011;52639;51.180;20.460;2022-07-18T10:06:04;5.57;;;1.80;;
65863;SDS011;52639;51.180;20.460;2022-07-18T10:10:09;3.83;;;1.75;;
65863;SDS011;52639;51.180;20.460;2022-07-18T10:14:12;3.25;;;1.67;;
65863;SDS011;52639;51.180;20.460;2022-07-18T10:18:16;3.35;;;1.75;;
65863;SDS011;52639;51.180;20.460;2022-07-18T10:22:21;4.38;;;1.70;;
65863;SDS011;52639;51.180;20.460;2022-07-18T10:26:26;3.20;;;1.50;;
65863;SDS011;52639;51.180;20.460;2022-07-18T10:30:31;3.35;;;1.70;;
65863;SDS011;52639;51.180;20.460;2022-07-18T10:34:37;4.47;;;1.70;;
65863;SDS011;52639;51.180;20.460;2022-07-18T10:39:02;3.83;;;1.60;;
65863;SDS011;52639;51.180;20.460;2022-07-18T10:47:42;5.88;;;2.33;;
65863;SDS011;52639;51.180;20.460;2022-07-18T10:51:48;4.68;;;2.13;;
65863;SDS011;52639;51.180;20.460;2022-07-18T10:55:51;4.00;;;1.65;;
65863;SDS011;52639;51.180;20.460;2022-07-18T11:00:00;4.05;;;1.90;;
65863;SDS011;52639;51.180;20.460;2022-07-18T11:04:22;3.20;;;1.85;;
65863;SDS011;52639;51.180;20.460;2022-07-18T11:08:29;2.20;;;1.65;;
65863;SDS011;52639;51.180;20.460;2022-07-18T11:12:34;5.03;;;1.73;;
65863;SDS011;52639;51.180;20.460;2022-07-18T11:16:41;3.05;;;1.60;;
65863;SDS011;52639;51.180;20.460;2022-07-18T11:21:15;6.18;;;2.03;;
65863;SDS011;52639;51.180;20.460;2022-07-18T11:25:19;3.28;;;1.58;;
65863;SDS011;52639;51.180;20.460;2022-07-18T11:29:22;2.97;;;1.70;;
65863;SDS011;52639;51.180;20.460;2022-07-18T11:33:32;4.30;;;1.67;;
65863;SDS011;52639;51.180;20.460;2022-07-18T11:37:39;7.78;;;2.00;;
65863;SDS011;52639;51.180;20.460;2022-07-18T11:41:51;5.25;;;1.90;;
65863;SDS011;52639;51.180;20.460;2022-07-18T11:46:04;2.92;;;1.77;;
65863;SDS011;52639;51.180;20.460;2022-07-18T11:50:33;4.03;;;1.70;;
65863;SDS011;52639;51.180;20.460;2022-07-18T11:55:06;3.75;;;1.60;;
65863;SDS011;52639;51.180;20.460;2022-07-18T11:59:39;2.95;;;1.92;;
65863;SDS011;52639;51.180;20.460;2022-07-18T12:04:13;3.53;;;1.90;;
65863;SDS011;52639;51.180;20.460;2022-07-18T12:08:59;3.70;;;1.80;;
65863;SDS011;52639;51.180;20.460;2022-07-18T12:13:46;3.23;;;1.93;;
65863;SDS011;52639;51.180;20.460;2022-07-18T12:18:01;4.80;;;2.05;;
65863;SDS011;52639;51.180;20.460;2022-07-18T12:22:20;4.82;;;2.03;;
65863;SDS011;52639;51.180;20.460;2022-07-18T12:31:43;4.00;;;1.83;;
65863;SDS011;52639;51.180;20.460;2022-07-18T12:35:57;4.78;;;1.73;;
65863;SDS011;52639;51.180;20.460;2022-07-18T12:40:47;4.72;;;2.00;;
65863;SDS011;52639;51.180;20.460;2022-07-18T12:45:07;4.03;;;1.70;;
65863;SDS011;52639;51.180;20.460;2022-07-18T12:49:29;2.65;;;1.80;;
65863;SDS011;52639;51.180;20.460;2022-07-18T12:53:39;2.92;;;1.77;;
65863;SDS011;52639;51.180;20.460;2022-07-18T12:58:00;2.13;;;1.80;;
65863;SDS011;52639;51.180;20.460;2022-07-18T13:02:26;5.75;;;2.47;;
65863;SDS011;52639;51.180;20.460;2022-07-18T13:06:33;2.45;;;1.65;;
65863;SDS011;52639;51.180;20.460;2022-07-18T13:10:39;3.63;;;1.77;;
65863;SDS011;52639;51.180;20.460;2022-07-18T13:14:44;3.90;;;1.83;;
65863;SDS011;52639;51.180;20.460;2022-07-18T13:18:48;3.75;;;1.75;;
65863;SDS011;52639;51.180;20.460;2022-07-18T13:22:53;4.95;;;2.00;;
65863;SDS011;52639;51.180;20.460;2022-07-18T13:26:57;2.15;;;1.83;;
65863;SDS011;52639;51.180;20.460;2022-07-18T13:31:03;2.25;;;1.70;;
65863;SDS011;52639;51.180;20.460;2022-07-18T13:35:14;2.83;;;1.67;;
65863;SDS011;52639;51.180;20.460;2022-07-18T13:39:23;5.72;;;2.20;;
65863;SDS011;52639;51.180;20.460;2022-07-18T13:43:33;4.65;;;1.73;;
65863;SDS011;52639;51.180;20.460;2022-07-18T13:47:41;5.78;;;2.10;;
65863;SDS011;52639;51.180;20.460;2022-07-18T13:51:44;4.25;;;1.75;;
65863;SDS011;52639;51.180;20.460;2022-07-18T13:55:49;5.03;;;1.90;;
65863;SDS011;52639;51.180;20.460;2022-07-18T13:59:56;4.28;;;2.28;;
65863;SDS011;52639;51.180;20.460;2022-07-18T14:04:16;4.63;;;2.08;;
65863;SDS011;52639;51.180;20.460;2022-07-18T14:08:20;4.32;;;2.00;;
65863;SDS011;52639;51.180;20.460;2022-07-18T14:12:26;3.42;;;2.00;;
65863;SDS011;52639;51.180;20.460;2022-07-18T14:16:29;4.90;;;1.83;;
65863;SDS011;52639;51.180;20.460;2022-07-18T14:20:33;3.30;;;1.80;;
65863;SDS011;52639;51.180;20.460;2022-07-18T14:24:40;3.58;;;1.88;;
65863;SDS011;52639;51.180;20.460;2022-07-18T14:28:56;2.72;;;1.73;;
65863;SDS011;52639;51.180;20.460;2022-07-18T14:33:02;5.03;;;1.90;;
65863;SDS011;52639;51.180;20.460;2022-07-18T14:37:05;3.80;;;2.20;;
65863;SDS011;52639;51.180;20.460;2022-07-18T14:41:10;4.88;;;1.75;;
65863;SDS011;52639;51.180;20.460;2022-07-18T14:45:18;3.35;;;1.73;;
65863;SDS011;52639;51.180;20.460;2022-07-18T14:49:27;5.57;;;2.10;;
65863;SDS011;52639;51.180;20.460;2022-07-18T14:53:32;5.70;;;2.30;;
65863;SDS011;52639;51.180;20.460;2022-07-18T14:57:35;3.13;;;1.80;;
65863;SDS011;52639;51.180;20.460;2022-07-18T15:01:41;9.07;;;2.10;;
65863;SDS011;52639;51.180;20.460;2022-07-18T15:05:50;4.60;;;1.80;;
65863;SDS011;52639;51.180;20.460;2022-07-18T15:09:54;3.47;;;2.10;;
65863;SDS011;52639;51.180;20.460;2022-07-18T15:13:59;4.90;;;1.75;;
65863;SDS011;52639;51.180;20.460;2022-07-18T15:18:06;3.13;;;1.95;;
65863;SDS011;52639;51.180;20.460;2022-07-18T15:22:11;6.55;;;3.08;;
65863;SDS011;52639;51.180;20.460;2022-07-18T15:26:16;6.50;;;2.65;;
65863;SDS011;52639;51.180;20.460;2022-07-18T15:30:20;4.90;;;2.17;;
65863;SDS011;52639;51.180;20.460;2022-07-18T15:34:25;3.45;;;1.88;;
65863;SDS011;52639;51.180;20.460;2022-07-18T15:38:29;3.63;;;1.95;;
65863;SDS011;52639;51.180;20.460;2022-07-18T15:42:32;5.15;;;1.98;;
65863;SDS011;52639;51.180;20.460;2022-07-18T15:46:36;3.38;;;1.98;;
65863;SDS011;52639;51.180;20.460;2022-07-18T15:50:43;4.22;;;1.85;;
65863;SDS011;52639;51.180;20.460;2022-07-18T15:54:47;2.72;;;1.92;;
65863;SDS011;52639;51.180;20.460;2022-07-18T15:58:51;3.40;;;1.92;;
65863;SDS011;52639;51.180;20.460;2022-07-18T16:02:54;5.07;;;2.17;;
65863;SDS011;52639;51.180;20.460;2022-07-18T16:06:59;5.93;;;1.80;;
65863;SDS011;52639;51.180;20.460;2022-07-18T16:11:03;4.20;;;2.20;;
65863;SDS011;52639;51.180;20.460;2022-07-18T16:15:07;4.25;;;2.10;;
65863;SDS011;52639;51.180;20.460;2022-07-18T16:19:11;4.57;;;2.10;;
65863;SDS011;52639;51.180;20.460;2022-07-18T16:23:16;4.43;;;2.10;;
65863;SDS011;52639;51.180;20.460;2022-07-18T16:27:19;5.32;;;1.90;;
65863;SDS011;52639;51.180;20.460;2022-07-18T16:31:23;5.43;;;2.00;;
65863;SDS011;52639;51.180;20.460;2022-07-18T16:35:27;4.10;;;1.85;;
65863;SDS011;52639;51.180;20.460;2022-07-18T16:39:36;7.38;;;2.10;;
65863;SDS011;52639;51.180;20.460;2022-07-18T16:43:40;5.63;;;2.40;;
65863;SDS011;52639;51.180;20.460;2022-07-18T16:47:45;8.40;;;2.65;;
65863;SDS011;52639;51.180;20.460;2022-07-18T16:51:49;5.75;;;2.40;;
65863;SDS011;52639;51.180;20.460;2022-07-18T16:56:00;6.82;;;2.40;;
65863;SDS011;52639;51.180;20.460;2022-07-18T17:00:08;4.43;;;1.90;;
65863;SDS011;52639;51.180;20.460;2022-07-18T17:04:18;5.05;;;2.58;;
65863;SDS011;52639;51.180;20.460;2022-07-18T17:08:22;4.57;;;2.10;;
65863;SDS011;52639;51.180;20.460;2022-07-18T17:12:28;5.43;;;2.70;;
65863;SDS011;52639;51.180;20.460;2022-07-18T17:16:32;7.95;;;4.20;;
65863;SDS011;52639;51.180;20.460;2022-07-18T17:20:37;7.38;;;4.05;;
65863;SDS011;52639;51.180;20.460;2022-07-18T17:24:40;8.32;;;4.60;;
65863;SDS011;52639;51.180;20.460;2022-07-18T17:28:47;6.03;;;3.55;;
65863;SDS011;52639;51.180;20.460;2022-07-18T17:32:52;7.18;;;3.80;;
65863;SDS011;52639;51.180;20.460;2022-07-18T17:37:01;8.25;;;4.20;;
65863;SDS011;52639;51.180;20.460;2022-07-18T17:41:08;9.30;;;4.15;;
65863;SDS011;52639;51.180;20.460;2022-07-18T17:45:15;7.85;;;3.50;;
65863;SDS011;52639;51.180;20.460;2022-07-18T17:49:25;7.03;;;3.58;;
65863;SDS011;52639;51.180;20.460;2022-07-18T17:53:29;9.13;;;3.83;;
65863;SDS011;52639;51.180;20.460;2022-07-18T17:57:33;9.15;;;3.72;;
65863;SDS011;52639;51.180;20.460;2022-07-18T18:01:39;7.15;;;3.88;;
65863;SDS011;52639;51.180;20.460;2022-07-18T18:05:42;5.68;;;3.50;;
65863;SDS011;52639;51.180;20.460;2022-07-18T18:09:51;7.03;;;3.55;;
65863;SDS011;52639;51.180;20.460;2022-07-18T18:14:00;12.88;;;3.60;;
65863;SDS011;52639;51.180;20.460;2022-07-18T18:18:45;5.93;;;3.35;;
65863;SDS011;52639;51.180;20.460;2022-07-18T18:22:55;6.55;;;3.45;;
65863;SDS011;52639;51.180;20.460;2022-07-18T18:27:04;4.88;;;2.90;;
65863;SDS011;52639;51.180;20.460;2022-07-18T18:31:32;6.55;;;2.90;;
65863;SDS011;52639;51.180;20.460;2022-07-18T18:35:51;5.03;;;2.75;;
65863;SDS011;52639;51.180;20.460;2022-07-18T18:40:07;7.10;;;3.42;;
65863;SDS011;52639;51.180;20.460;2022-07-18T18:44:27;6.47;;;3.28;;
65863;SDS011;52639;51.180;20.460;2022-07-18T18:48:46;8.87;;;3.53;;
65863;SDS011;52639;51.180;20.460;2022-07-18T18:53:20;7.47;;;3.65;;
65863;SDS011;52639;51.180;20.460;2022-07-18T18:57:45;6.10;;;3.30;;
65863;SDS011;52639;51.180;20.460;2022-07-18T19:02:35;7.82;;;3.20;;
65863;SDS011;52639;51.180;20.460;2022-07-18T19:06:40;6.45;;;3.50;;
65863;SDS011;52639;51.180;20.460;2022-07-18T19:10:48;6.38;;;3.17;;
65863;SDS011;52639;51.180;20.460;2022-07-18T19:14:52;6.93;;;3.85;;
65863;SDS011;52639;51.180;20.460;2022-07-18T19:18:58;10.93;;;4.13;;
65863;SDS011;52639;51.180;20.460;2022-07-18T19:23:02;10.13;;;5.60;;
65863;SDS011;52639;51.180;20.460;2022-07-18T19:27:07;8.93;;;4.75;;
65863;SDS011;52639;51.180;20.460;2022-07-18T19:31:11;15.35;;;5.88;;
65863;SDS011;52639;51.180;20.460;2022-07-18T19:35:15;15.57;;;7.10;;
65863;SDS011;52639;51.180;20.460;2022-07-18T19:39:20;14.77;;;6.30;;
65863;SDS011;52639;51.180;20.460;2022-07-18T19:43:27;9.95;;;5.30;;
65863;SDS011;52639;51.180;20.460;2022-07-18T19:47:36;6.18;;;3.95;;
65863;SDS011;52639;51.180;20.460;2022-07-18T19:51:42;8.40;;;4.20;;
65863;SDS011;52639;51.180;20.460;2022-07-18T19:55:46;6.80;;;3.65;;
65863;SDS011;52639;51.180;20.460;2022-07-18T19:59:52;8.13;;;4.38;;
65863;SDS011;52639;51.180;20.460;2022-07-18T20:03:56;8.25;;;4.18;;
65863;SDS011;52639;51.180;20.460;2022-07-18T20:08:02;10.43;;;4.38;;
65863;SDS011;52639;51.180;20.460;2022-07-18T20:12:08;8.90;;;3.67;;
65863;SDS011;52639;51.180;20.460;2022-07-18T20:16:16;6.47;;;3.60;;
65863;SDS011;52639;51.180;20.460;2022-07-18T20:20:23;8.07;;;3.78;;
65863;SDS011;52639;51.180;20.460;2022-07-18T20:24:26;8.57;;;4.05;;
65863;SDS011;52639;51.180;20.460;2022-07-18T20:28:31;6.40;;;3.80;;
65863;SDS011;52639;51.180;20.460;2022-07-18T20:32:37;8.02;;;3.70;;
65863;SDS011;52639;51.180;20.460;2022-07-18T20:36:42;8.77;;;3.95;;
65863;SDS011;52639;51.180;20.460;2022-07-18T20:40:47;6.13;;;3.83;;
65863;SDS011;52639;51.180;20.460;2022-07-18T20:44:51;6.25;;;3.70;;
65863;SDS011;52639;51.180;20.460;2022-07-18T20:48:57;6.57;;;4.00;;
65863;SDS011;52639;51.180;20.460;2022-07-18T20:53:01;7.60;;;3.70;;
65863;SDS011;52639;51.180;20.460;2022-07-18T20:57:05;6.60;;;3.85;;
65863;SDS011;52639;51.180;20.460;2022-07-18T21:01:09;8.65;;;3.55;;
65863;SDS011;52639;51.180;20.460;2022-07-18T21:05:16;8.10;;;3.78;;
65863;SDS011;52639;51.180;20.460;2022-07-18T21:09:20;6.88;;;3.97;;
65863;SDS011;52639;51.180;20.460;2022-07-18T21:13:24;7.97;;;3.75;;
65863;SDS011;52639;51.180;20.460;2022-07-18T21:17:28;7.57;;;3.88;;
65863;SDS011;52639;51.180;20.460;2022-07-18T21:21:34;7.88;;;3.33;;
65863;SDS011;52639;51.180;20.460;2022-07-18T21:25:37;7.55;;;3.80;;
65863;SDS011;52639;51.180;20.460;2022-07-18T21:29:41;8.55;;;4.32;;
65863;SDS011;52639;51.180;20.460;2022-07-18T21:33:44;10.25;;;4.05;;
65863;SDS011;52639;51.180;20.460;2022-07-18T21:37:49;9.95;;;4.15;;
65863;SDS011;52639;51.180;20.460;2022-07-18T21:41:52;7.65;;;3.95;;
65863;SDS011;52639;51.180;20.460;2022-07-18T21:45:55;8.35;;;4.20;;
65863;SDS011;52639;51.180;20.460;2022-07-18T21:50:00;10.95;;;4.75;;
65863;SDS011;52639;51.180;20.460;2022-07-18T21:54:06;7.22;;;4.10;;
65863;SDS011;52639;51.180;20.460;2022-07-18T21:58:09;7.55;;;4.22;;
65863;SDS011;52639;51.180;20.460;2022-07-18T22:02:12;7.45;;;3.78;;
65863;SDS011;52639;51.180;20.460;2022-07-18T22:06:16;7.18;;;4.45;;
65863;SDS011;52639;51.180;20.460;2022-07-18T22:10:21;9.05;;;4.80;;
65863;SDS011;52639;51.180;20.460;2022-07-18T22:14:24;7.28;;;4.57;;
65863;SDS011;52639;51.180;20.460;2022-07-18T22:18:27;10.73;;;4.70;;
65863;SDS011;52639;51.180;20.460;2022-07-18T22:22:30;7.63;;;4.30;;
65863;SDS011;52639;51.180;20.460;2022-07-18T22:26:35;10.75;;;4.80;;
65863;SDS011;52639;51.180;20.460;2022-07-18T22:30:38;12.10;;;4.63;;
65863;SDS011;52639;51.180;20.460;2022-07-18T22:34:41;7.22;;;4.43;;
65863;SDS011;52639;51.180;20.460;2022-07-18T22:38:43;10.07;;;5.15;;
65863;SDS011;52639;51.180;20.460;2022-07-18T22:42:48;7.28;;;4.32;;
65863;SDS011;52639;51.180;20.460;2022-07-18T22:46:53;7.63;;;4.35;;
65863;SDS011;52639;51.180;20.460;2022-07-18T22:50:58;10.25;;;4.47;;
65863;SDS011;52639;51.180;20.460;2022-07-18T22:55:00;8.90;;;4.20;;
65863;SDS011;52639;51.180;20.460;2022-07-18T22:59:05;6.82;;;4.55;;
65863;SDS011;52639;51.180;20.460;2022-07-18T23:03:08;7.50;;;4.63;;
65863;SDS011;52639;51.180;20.460;2022-07-18T23:07:10;8.00;;;4.60;;
65863;SDS011;52639;51.180;20.460;2022-07-18T23:11:13;6.95;;;4.38;;
65863;SDS011;52639;51.180;20.460;2022-07-18T23:15:17;10.38;;;4.75;;
65863;SDS011;52639;51.180;20.460;2022-07-18T23:19:20;9.93;;;4.72;;
65863;SDS011;52639;51.180;20.460;2022-07-18T23:23:23;10.32;;;4.90;;
65863;SDS011;52639;51.180;20.460;2022-07-18T23:27:26;8.70;;;4.70;;
65863;SDS011;52639;51.180;20.460;2022-07-18T23:31:30;7.13;;;4.53;;
65863;SDS011;52639;51.180;20.460;2022-07-18T23:35:33;8.13;;;4.30;;
65863;SDS011;52639;51.180;20.460;2022-07-18T23:39:36;8.10;;;4.40;;
65863;SDS011;52639;51.180;20.460;2022-07-18T23:43:39;9.00;;;4.30;;
65863;SDS011;52639;51.180;20.460;2022-07-18T23:47:43;7.20;;;4.28;;
65863;SDS011;52639;51.180;20.460;2022-07-18T23:51:46;6.68;;;4.28;;
65863;SDS011;52639;51.180;20.460;2022-07-18T23:55:49;10.35;;;5.18;;
65863;SDS011;52639;51.180;20.460;2022-07-18T23:59:52;8.25;;;5.80;;
